createdAt,value
2023-04-13T00:01:03.027Z,100.00
2023-04-13T00:03:33.668Z,100.00
2023-04-13T00:06:03.569Z,100.00
2023-04-13T00:08:36.075Z,100.00
2023-04-13T00:11:07.813Z,100.00
2023-04-13T00:13:41.395Z,100.00
2023-04-13T00:16:14.697Z,100.00
2023-04-13T00:18:45.270Z,100.00
2023-04-13T00:21:17.324Z,100.00
2023-04-13T00:23:47.471Z,100.00
2023-04-13T00:26:20.779Z,100.00
2023-04-13T00:28:50.514Z,100.00
2023-04-13T00:31:23.913Z,100.00
2023-04-13T00:33:53.537Z,100.00
2023-04-13T00:36:24.972Z,100.00
2023-04-13T00:38:54.660Z,100.00
2023-04-13T00:41:24.396Z,100.00
2023-04-13T00:43:54.232Z,100.00
2023-04-13T00:46:26.650Z,100.00
2023-04-13T00:48:58.356Z,100.00
2023-04-13T00:51:30.319Z,100.00
2023-04-13T00:54:00.627Z,100.00
2023-04-13T00:56:30.992Z,100.00
2023-04-13T00:59:00.701Z,100.00
2023-04-13T01:01:33.139Z,100.00
2023-04-13T01:04:02.889Z,100.00
2023-04-13T01:06:42.214Z,100.00
2023-04-13T01:09:17.941Z,100.00
2023-04-13T01:11:56.434Z,100.00
2023-04-13T01:14:32.357Z,100.00
2023-04-13T01:17:08.712Z,100.00
2023-04-13T01:19:51.944Z,100.00
2023-04-13T01:22:25.676Z,100.00
2023-04-13T01:25:11.638Z,100.00
2023-04-13T01:27:51.877Z,100.00
2023-04-13T01:30:26.275Z,100.00
2023-04-13T01:32:59.924Z,100.00
2023-04-13T01:35:31.433Z,100.00
2023-04-13T01:38:02.434Z,100.00
2023-04-13T01:40:35.088Z,100.00
2023-04-13T01:43:07.391Z,100.00
2023-04-13T01:45:50.701Z,100.00
2023-04-13T01:48:24.869Z,100.00
2023-04-13T01:51:07.477Z,100.00
2023-04-13T01:53:49.376Z,100.00
2023-04-13T01:56:23.337Z,100.00
2023-04-13T01:59:02.623Z,100.00
2023-04-13T02:01:33.265Z,100.00
2023-04-13T02:04:03.905Z,100.00
2023-04-13T02:06:35.153Z,100.00
2023-04-13T02:09:08.393Z,100.00
2023-04-13T02:11:38.611Z,100.00
2023-04-13T02:14:12.577Z,100.00
2023-04-13T02:16:43.790Z,100.00
2023-04-13T02:19:16.452Z,100.00
2023-04-13T02:21:46.273Z,100.00
2023-04-13T02:24:17.145Z,100.00
2023-04-13T02:26:47.836Z,100.00
2023-04-13T02:29:20.090Z,100.00
2023-04-13T02:31:49.854Z,100.00
2023-04-13T02:34:19.541Z,100.00
2023-04-13T02:36:49.222Z,100.00
2023-04-13T02:39:18.923Z,100.00
2023-04-13T02:41:48.616Z,100.00
2023-04-13T02:44:25.885Z,100.00
2023-04-13T02:46:59.688Z,100.00
2023-04-13T02:49:29.339Z,100.00
2023-04-13T02:52:13.602Z,100.00
2023-04-13T02:54:54.909Z,100.00
2023-04-13T02:57:28.552Z,100.00
2023-04-13T03:00:07.797Z,100.00
2023-04-13T03:02:45.535Z,100.00
2023-04-13T03:05:20.068Z,100.00
2023-04-13T03:07:50.224Z,100.00
2023-04-13T03:10:20.642Z,100.00
2023-04-13T03:12:50.820Z,100.00
2023-04-13T03:15:23.836Z,100.00
2023-04-13T03:17:53.540Z,100.00
2023-04-13T03:20:29.376Z,100.00
2023-04-13T03:23:02.813Z,100.00
2023-04-13T03:25:36.344Z,100.00
2023-04-13T03:28:06.925Z,100.00
2023-04-13T03:30:44.989Z,100.00
2023-04-13T03:33:14.628Z,100.00
2023-04-13T03:35:44.853Z,100.00
2023-04-13T03:38:23.750Z,100.00
2023-04-13T03:40:55.037Z,100.00
2023-04-13T03:43:28.038Z,100.00
2023-04-13T03:46:19.113Z,100.00
2023-04-13T03:48:48.979Z,100.00
2023-04-13T03:51:22.613Z,100.00
2023-04-13T03:53:55.315Z,100.00
2023-04-13T03:56:28.102Z,100.00
2023-04-13T03:58:59.475Z,100.00
2023-04-13T04:01:32.942Z,100.00
2023-04-13T04:04:02.984Z,100.00
2023-04-13T04:06:33.998Z,100.00
2023-04-13T04:09:15.905Z,100.00
2023-04-13T04:11:49.913Z,100.00
2023-04-13T04:14:26.795Z,100.00
2023-04-13T04:17:09.677Z,100.00
2023-04-13T04:19:39.413Z,100.00
2023-04-13T04:22:09.785Z,100.00
2023-04-13T04:24:42.918Z,100.00
2023-04-13T04:27:14.582Z,100.00
2023-04-13T04:29:49.198Z,100.00
2023-04-13T04:32:29.991Z,100.00
2023-04-13T04:34:59.699Z,100.00
2023-04-13T04:37:29.985Z,100.00
2023-04-13T04:40:05.765Z,100.00
2023-04-13T04:42:35.508Z,100.00
2023-04-13T04:45:07.447Z,100.00
2023-04-13T04:47:45.260Z,100.00
2023-04-13T04:50:22.124Z,100.00
2023-04-13T04:52:58.611Z,100.00
2023-04-13T04:55:28.611Z,100.00
2023-04-13T04:57:59.326Z,100.00
2023-04-13T05:00:31.021Z,100.00
2023-04-13T05:03:10.913Z,100.00
2023-04-13T05:05:45.700Z,100.00
2023-04-13T05:08:20.667Z,100.00
2023-04-13T05:10:52.702Z,100.00
2023-04-13T05:13:22.879Z,100.00
2023-04-13T05:16:05.915Z,100.00
2023-04-13T05:18:47.178Z,100.00
2023-04-13T05:21:37.573Z,100.00
2023-04-13T05:24:07.533Z,100.00
2023-04-13T05:26:37.973Z,100.00
2023-04-13T05:29:08.735Z,100.00
2023-04-13T05:31:43.231Z,100.00
2023-04-13T05:34:16.681Z,100.00
2023-04-13T05:37:01.281Z,100.00
2023-04-13T05:39:31.008Z,100.00
2023-04-13T05:42:01.515Z,100.00
2023-04-13T05:44:33.885Z,100.00
2023-04-13T05:47:04.146Z,100.00
2023-04-13T05:49:38.935Z,100.00
2023-04-13T05:52:10.695Z,100.00
2023-04-13T05:54:47.367Z,100.00
2023-04-13T05:57:17.201Z,100.00
2023-04-13T05:59:50.248Z,100.00
2023-04-13T06:02:26.800Z,100.00
2023-04-13T06:04:59.562Z,100.00
2023-04-13T06:07:29.583Z,100.00
2023-04-13T06:10:00.955Z,100.00
2023-04-13T06:12:30.896Z,100.00
2023-04-13T06:15:00.542Z,100.00
2023-04-13T06:17:30.912Z,100.00
2023-04-13T06:20:04.337Z,100.00
2023-04-13T06:22:37.038Z,100.00
2023-04-13T06:25:08.694Z,100.00
2023-04-13T06:27:43.586Z,100.00
2023-04-13T06:30:15.004Z,100.00
2023-04-13T06:32:45.541Z,100.00
2023-04-13T06:35:21.273Z,100.00
2023-04-13T06:37:52.648Z,100.00
2023-04-13T06:40:28.504Z,100.00
2023-04-13T06:43:08.956Z,100.00
2023-04-13T06:45:50.709Z,100.00
2023-04-13T06:48:24.085Z,100.00
2023-04-13T06:51:01.880Z,100.00
2023-04-13T06:53:34.361Z,100.00
2023-04-13T06:56:04.095Z,100.00
2023-04-13T06:58:34.637Z,100.00
2023-04-13T07:01:04.423Z,100.00
2023-04-13T07:03:37.025Z,100.00
2023-04-13T07:06:11.804Z,100.00
2023-04-13T07:08:42.247Z,100.00
2023-04-13T07:11:12.000Z,100.00
2023-04-13T07:13:42.327Z,100.00
2023-04-13T07:16:14.754Z,100.00
2023-04-13T07:18:47.729Z,100.00
2023-04-13T07:21:20.024Z,100.00
2023-04-13T07:24:03.359Z,100.00
2023-04-13T07:26:34.365Z,100.00
2023-04-13T07:29:04.252Z,100.00
2023-04-13T07:31:38.456Z,100.00
2023-04-13T07:34:09.287Z,100.00
2023-04-13T07:36:47.363Z,100.00
2023-04-13T07:39:21.941Z,100.00
2023-04-13T07:41:54.213Z,100.00
2023-04-13T07:44:31.337Z,100.00
2023-04-13T07:47:01.169Z,100.00
2023-04-13T07:49:32.989Z,100.00
2023-04-13T07:52:05.396Z,100.00
2023-04-13T07:54:38.897Z,100.00
2023-04-13T07:57:11.318Z,98.93
2023-04-13T07:59:46.646Z,97.74
2023-04-13T08:02:18.398Z,99.32
2023-04-13T08:04:52.965Z,96.83
2023-04-13T08:07:29.746Z,94.41
2023-04-13T08:09:59.664Z,93.07
2023-04-13T08:12:31.558Z,94.88
2023-04-13T08:15:01.220Z,95.55
2023-04-13T08:17:31.805Z,96.35
2023-04-13T08:20:04.241Z,95.04
2023-04-13T08:22:37.172Z,94.63
2023-04-13T08:25:10.282Z,95.37
2023-04-13T08:27:40.779Z,96.06
2023-04-13T08:30:12.765Z,97.72
2023-04-13T08:32:55.475Z,100.00
2023-04-13T08:35:26.796Z,100.00
2023-04-13T08:37:59.212Z,100.00
2023-04-13T08:40:29.355Z,100.00
2023-04-13T08:42:59.958Z,99.80
2023-04-13T08:45:30.777Z,100.00
2023-04-13T08:48:02.068Z,100.00
2023-04-13T08:50:34.075Z,99.70
2023-04-13T08:53:07.416Z,100.00
2023-04-13T08:55:37.398Z,99.91
2023-04-13T08:58:08.576Z,99.85
2023-04-13T09:00:39.020Z,100.00
2023-04-13T09:03:14.073Z,100.00
2023-04-13T09:05:49.437Z,100.00
2023-04-13T09:08:22.751Z,99.89
2023-04-13T09:10:54.349Z,98.63
2023-04-13T09:13:24.090Z,98.24
2023-04-13T09:15:54.043Z,98.91
2023-04-13T09:18:29.541Z,95.52
2023-04-13T09:21:08.331Z,94.54
2023-04-13T09:23:40.686Z,93.45
2023-04-13T09:26:11.469Z,94.15
2023-04-13T09:28:54.301Z,93.22
2023-04-13T09:31:25.853Z,92.90
2023-04-13T09:33:56.001Z,92.48
2023-04-13T09:36:25.675Z,91.97
2023-04-13T09:38:59.595Z,92.52
2023-04-13T09:41:37.147Z,90.23
2023-04-13T09:44:20.444Z,92.03
2023-04-13T09:47:00.088Z,92.80
2023-04-13T09:49:39.342Z,93.44
2023-04-13T09:52:10.213Z,91.95
2023-04-13T09:54:42.545Z,91.00
2023-04-13T09:57:12.263Z,89.72
2023-04-13T09:59:42.383Z,90.60
2023-04-13T10:02:13.065Z,89.51
2023-04-13T10:04:43.895Z,89.22
2023-04-13T10:07:13.605Z,87.54
2023-04-13T10:09:46.161Z,85.09
2023-04-13T10:12:19.580Z,81.91
2023-04-13T10:14:51.986Z,79.65
2023-04-13T10:17:42.876Z,78.52
2023-04-13T10:20:15.326Z,77.23
2023-04-13T10:22:48.763Z,79.01
2023-04-13T10:25:32.822Z,81.74
2023-04-13T10:28:04.368Z,79.40
2023-04-13T10:30:34.129Z,76.73
2023-04-13T10:33:05.935Z,76.50
2023-04-13T10:35:40.794Z,76.13
2023-04-13T10:38:12.614Z,73.63
2023-04-13T10:40:49.678Z,73.35
2023-04-13T10:43:29.310Z,74.09
2023-04-13T10:46:09.906Z,73.96
2023-04-13T10:48:40.235Z,74.68
2023-04-13T10:51:10.063Z,70.07
2023-04-13T10:53:39.892Z,73.14
2023-04-13T10:56:21.237Z,72.95
2023-04-13T10:58:55.703Z,72.74
2023-04-13T11:01:25.754Z,73.25
2023-04-13T11:04:04.399Z,71.69
2023-04-13T11:06:39.476Z,72.21
2023-04-13T11:09:13.746Z,72.38
2023-04-13T11:11:46.690Z,71.68
2023-04-13T11:14:23.797Z,70.74
2023-04-13T11:16:58.511Z,69.51
2023-04-13T11:19:28.430Z,73.01
2023-04-13T11:21:59.867Z,70.96
2023-04-13T11:24:30.258Z,71.32
2023-04-13T11:27:03.907Z,71.57
2023-04-13T11:29:33.638Z,72.12
2023-04-13T11:32:03.801Z,71.14
2023-04-13T11:34:33.453Z,70.62
2023-04-13T11:37:06.232Z,71.82
2023-04-13T11:39:38.596Z,68.68
2023-04-13T11:42:11.127Z,66.87
2023-04-13T11:44:42.883Z,67.41
2023-04-13T11:47:15.413Z,64.20
2023-04-13T11:49:48.101Z,64.29
2023-04-13T11:52:18.288Z,64.42
2023-04-13T11:54:49.290Z,65.52
2023-04-13T11:57:22.244Z,65.55
2023-04-13T11:59:54.262Z,65.70
2023-04-13T12:02:29.812Z,65.23
2023-04-13T12:05:00.745Z,65.32
2023-04-13T12:07:31.359Z,66.70
2023-04-13T12:10:05.802Z,68.87
2023-04-13T12:15:33.186Z,68.08
2023-04-13T12:18:14.310Z,65.60
2023-04-13T12:20:48.380Z,66.58
2023-04-13T12:23:24.022Z,68.92
2023-04-13T12:25:58.757Z,68.50
2023-04-13T12:28:35.853Z,68.64
2023-04-13T12:31:07.621Z,68.35
2023-04-13T12:33:37.588Z,67.70
2023-04-13T12:36:11.410Z,67.51
2023-04-13T12:38:41.181Z,68.51
2023-04-13T12:41:12.614Z,69.44
2023-04-13T12:43:44.891Z,69.22
2023-04-13T12:46:14.914Z,67.66
2023-04-13T12:48:44.608Z,65.86
2023-04-13T12:51:14.349Z,64.93
2023-04-13T12:53:44.146Z,63.94
2023-04-13T12:56:13.839Z,63.41
2023-04-13T12:58:46.265Z,63.56
2023-04-13T13:01:16.520Z,69.26
2023-04-13T13:03:46.589Z,79.39
2023-04-13T13:06:16.358Z,85.33
2023-04-13T13:08:46.173Z,89.69
2023-04-13T13:11:15.857Z,88.91
2023-04-13T13:13:48.480Z,87.06
2023-04-13T13:16:19.623Z,84.98
2023-04-13T13:18:51.539Z,82.66
2023-04-13T13:21:22.085Z,78.88
2023-04-13T13:23:52.682Z,73.48
2023-04-13T13:26:24.376Z,70.14
2023-04-13T13:28:57.599Z,70.28
2023-04-13T13:31:27.768Z,72.06
2023-04-13T13:33:57.417Z,72.17
2023-04-13T13:36:27.909Z,74.58
2023-04-13T13:39:00.053Z,73.48
2023-04-13T13:41:29.867Z,71.66
2023-04-13T13:44:02.202Z,68.81
2023-04-13T13:46:32.063Z,66.83
2023-04-13T13:49:05.830Z,65.51
2023-04-13T13:51:56.084Z,56.46
2023-04-13T13:54:28.846Z,54.90
2023-04-13T13:56:58.469Z,53.64
2023-04-13T13:59:30.730Z,54.77
2023-04-13T14:02:01.241Z,54.60
2023-04-13T14:04:31.068Z,54.91
2023-04-13T14:07:00.966Z,55.18
2023-04-13T14:09:31.032Z,52.28
2023-04-13T14:12:02.105Z,50.72
2023-04-13T14:14:34.384Z,49.89
2023-04-13T14:17:04.022Z,49.07
2023-04-13T14:19:34.760Z,50.83
2023-04-13T14:22:04.423Z,52.50
2023-04-13T14:24:34.062Z,54.14
2023-04-13T14:27:03.695Z,55.84
2023-04-13T14:29:36.150Z,56.92
2023-04-13T14:32:05.942Z,56.43
2023-04-13T14:34:35.605Z,55.87
2023-04-13T14:37:05.270Z,55.82
2023-04-13T14:39:34.928Z,57.07
2023-04-13T14:42:04.663Z,58.32
2023-04-13T14:44:36.957Z,59.74
2023-04-13T14:47:08.962Z,62.41
2023-04-13T14:49:39.312Z,66.43
2023-04-13T14:52:09.143Z,68.64
2023-04-13T14:54:39.256Z,68.43
2023-04-13T14:57:10.040Z,68.76
2023-04-13T14:59:42.341Z,66.74
2023-04-13T15:02:12.177Z,67.28
2023-04-13T15:04:42.725Z,68.46
2023-04-13T15:07:12.452Z,67.18
2023-04-13T15:09:42.205Z,68.13
2023-04-13T15:12:13.646Z,68.83
2023-04-13T15:14:47.020Z,67.78
2023-04-13T15:17:16.663Z,69.43
2023-04-13T15:19:46.313Z,68.57
2023-04-13T15:22:16.093Z,65.73
2023-04-13T15:24:45.752Z,66.00
2023-04-13T15:27:15.457Z,68.45
2023-04-13T15:29:47.763Z,67.17
2023-04-13T15:32:17.427Z,66.41
2023-04-13T15:34:47.164Z,65.48
2023-04-13T15:37:16.819Z,65.29
2023-04-13T15:39:46.432Z,67.71
2023-04-13T15:42:16.173Z,65.97
2023-04-13T15:44:48.566Z,64.75
2023-04-13T15:47:18.381Z,63.80
2023-04-13T15:49:47.981Z,62.90
2023-04-13T15:52:17.661Z,61.96
2023-04-13T15:54:47.859Z,62.05
2023-04-13T15:57:18.840Z,61.42
2023-04-13T15:59:51.054Z,60.74
2023-04-13T16:02:20.770Z,59.66
2023-04-13T16:04:51.062Z,59.26
2023-04-13T16:07:21.127Z,59.90
2023-04-13T16:09:56.310Z,61.01
2023-04-13T16:12:31.490Z,63.60
2023-04-13T16:15:06.331Z,65.32
2023-04-13T16:17:40.437Z,65.94
2023-04-13T16:20:18.233Z,66.21
2023-04-13T16:22:52.310Z,63.67
2023-04-13T16:25:22.474Z,62.52
2023-04-13T16:27:54.824Z,60.49
2023-04-13T16:30:30.511Z,61.16
2023-04-13T16:33:00.244Z,59.08
2023-04-13T16:35:30.029Z,59.53
2023-04-13T16:37:59.682Z,59.66
2023-04-13T16:40:29.410Z,61.45
2023-04-13T16:42:59.065Z,62.76
2023-04-13T16:45:31.569Z,65.00
2023-04-13T16:48:01.412Z,63.26
2023-04-13T16:50:32.314Z,60.29
2023-04-13T16:53:02.673Z,62.25
2023-04-13T16:55:32.309Z,64.55
2023-04-13T16:58:01.947Z,64.86
2023-04-13T17:00:35.382Z,61.46
2023-04-13T17:03:05.326Z,59.79
2023-04-13T17:05:35.068Z,63.19
2023-04-13T17:08:06.033Z,68.68
2023-04-13T17:10:36.473Z,73.96
2023-04-13T17:13:06.159Z,77.01
2023-04-13T17:15:38.544Z,80.10
2023-04-13T17:18:08.396Z,82.96
2023-04-13T17:20:39.818Z,81.24
2023-04-13T17:23:09.533Z,82.09
2023-04-13T17:25:41.648Z,79.38
2023-04-13T17:28:11.640Z,86.78
2023-04-13T17:30:43.874Z,88.81
2023-04-13T17:33:13.644Z,87.77
2023-04-13T17:35:43.318Z,90.04
2023-04-13T17:38:12.998Z,94.20
2023-04-13T17:40:42.646Z,94.18
2023-04-13T17:43:12.288Z,95.29
2023-04-13T17:45:44.532Z,94.23
2023-04-13T17:48:14.219Z,95.02
2023-04-13T17:50:43.945Z,94.14
2023-04-13T17:53:13.578Z,97.10
2023-04-13T17:55:43.260Z,99.43
2023-04-13T17:58:13.529Z,98.23
2023-04-13T18:00:45.741Z,99.04
2023-04-13T18:03:15.476Z,97.89
2023-04-13T18:05:47.217Z,97.64
2023-04-13T18:08:16.892Z,100.00
2023-04-13T18:10:46.553Z,100.00
2023-04-13T18:13:16.966Z,100.00
2023-04-13T18:15:50.448Z,100.00
2023-04-13T18:18:24.388Z,100.00
2023-04-13T18:20:54.794Z,100.00
2023-04-13T18:23:24.685Z,100.00
2023-04-13T18:25:54.562Z,100.00
2023-04-13T18:28:24.219Z,100.00
2023-04-13T18:31:02.143Z,100.00
2023-04-13T18:33:32.149Z,100.00
2023-04-13T18:36:01.840Z,100.00
2023-04-13T18:38:31.529Z,100.00
2023-04-13T18:41:01.307Z,100.00
2023-04-13T18:43:31.172Z,100.00
2023-04-13T18:46:03.767Z,100.00
2023-04-13T18:48:33.550Z,100.00
2023-04-13T18:51:03.881Z,100.00
2023-04-13T18:53:34.068Z,100.00
2023-04-13T18:56:03.701Z,100.00
2023-04-13T18:58:33.398Z,100.00
2023-04-13T19:01:05.688Z,100.00
2023-04-13T19:03:35.572Z,100.00
2023-04-13T19:06:05.825Z,100.00
2023-04-13T19:08:35.547Z,100.00
2023-04-13T19:11:05.261Z,100.00
2023-04-13T19:13:34.980Z,100.00
2023-04-13T19:16:09.378Z,100.00
2023-04-13T19:18:39.238Z,100.00
2023-04-13T19:21:09.289Z,100.00
2023-04-13T19:23:40.429Z,100.00
2023-04-13T19:26:10.425Z,100.00
2023-04-13T19:28:40.116Z,100.00
2023-04-13T19:31:12.487Z,100.00
2023-04-13T19:33:42.411Z,100.00
2023-04-13T19:36:12.316Z,100.00
2023-04-13T19:38:42.438Z,100.00
2023-04-13T19:41:12.247Z,100.00
2023-04-13T19:43:41.931Z,100.00
2023-04-13T19:46:14.274Z,100.00
2023-04-13T19:48:43.998Z,100.00
2023-04-13T19:51:13.662Z,100.00
2023-04-13T19:53:43.306Z,100.00
2023-04-13T19:56:13.409Z,100.00
2023-04-13T19:58:43.092Z,100.00
2023-04-13T20:01:16.233Z,100.00
2023-04-13T20:03:46.440Z,100.00
2023-04-13T20:06:16.484Z,100.00
2023-04-13T20:08:46.631Z,100.00
2023-04-13T20:11:16.431Z,100.00
2023-04-13T20:13:48.376Z,100.00
2023-04-13T20:16:20.683Z,100.00
2023-04-13T20:18:50.582Z,100.00
2023-04-13T20:21:20.429Z,100.00
2023-04-13T20:23:50.098Z,100.00
2023-04-13T20:26:19.816Z,100.00
2023-04-13T20:28:49.532Z,100.00
2023-04-13T20:31:21.813Z,100.00
2023-04-13T20:33:51.655Z,100.00
2023-04-13T20:36:21.850Z,100.00
2023-04-13T20:38:51.546Z,100.00
2023-04-13T20:41:22.134Z,100.00
2023-04-13T20:43:53.365Z,100.00
2023-04-13T20:46:34.413Z,100.00
2023-04-13T20:49:05.589Z,100.00
2023-04-13T20:51:35.925Z,100.00
2023-04-13T20:54:06.427Z,100.00
2023-04-13T20:56:36.274Z,100.00
2023-04-13T20:59:05.943Z,100.00
2023-04-13T21:01:38.784Z,100.00
2023-04-13T21:04:08.545Z,100.00
2023-04-13T21:06:38.332Z,100.00
2023-04-13T21:09:08.853Z,100.00
2023-04-13T21:11:38.868Z,100.00
2023-04-13T21:14:08.564Z,100.00
2023-04-13T21:16:41.175Z,100.00
2023-04-13T21:19:10.941Z,100.00
2023-04-13T21:21:40.923Z,100.00
2023-04-13T21:24:11.144Z,100.00
2023-04-13T21:26:41.055Z,100.00
2023-04-13T21:29:11.320Z,100.00
2023-04-13T21:31:43.576Z,100.00
2023-04-13T21:34:13.188Z,100.00
2023-04-13T21:39:16.176Z,100.00
2023-04-13T21:41:45.855Z,100.00
2023-04-13T21:44:28.682Z,100.00
2023-04-13T21:47:01.830Z,100.00
2023-04-13T21:49:31.558Z,100.00
2023-04-13T21:52:01.237Z,100.00
2023-04-13T21:54:30.978Z,100.00
2023-04-13T21:57:00.631Z,100.00
2023-04-13T21:59:30.343Z,100.00
2023-04-13T22:02:02.643Z,100.00
2023-04-13T22:04:32.484Z,100.00
2023-04-13T22:07:02.178Z,100.00
2023-04-13T22:09:31.826Z,100.00
2023-04-13T22:12:01.490Z,100.00
2023-04-13T22:14:31.127Z,100.00
2023-04-13T22:17:03.920Z,100.00
2023-04-13T22:19:33.545Z,100.00
2023-04-13T22:22:03.206Z,100.00
2023-04-13T22:24:32.878Z,100.00
2023-04-13T22:27:04.800Z,100.00
2023-04-13T22:29:34.631Z,100.00
2023-04-13T22:32:06.890Z,100.00
2023-04-13T22:34:36.549Z,100.00
2023-04-13T22:37:07.154Z,100.00
2023-04-13T22:39:36.931Z,100.00
2023-04-13T22:42:07.061Z,100.00
2023-04-13T22:44:36.976Z,100.00
2023-04-13T22:47:09.180Z,100.00
2023-04-13T22:49:38.845Z,100.00
2023-04-13T22:52:08.773Z,100.00
2023-04-13T22:54:38.517Z,100.00
2023-04-13T22:57:08.182Z,100.00
2023-04-13T22:59:37.812Z,100.00
2023-04-13T23:02:10.120Z,100.00
2023-04-13T23:04:40.661Z,100.00
2023-04-13T23:07:10.521Z,100.00
2023-04-13T23:09:40.159Z,100.00
2023-04-13T23:12:10.360Z,100.00
2023-04-13T23:14:40.542Z,100.00
2023-04-13T23:17:12.768Z,100.00
2023-04-13T23:19:42.469Z,100.00
2023-04-13T23:22:12.123Z,100.00
2023-04-13T23:24:41.784Z,100.00
2023-04-13T23:27:11.454Z,100.00
2023-04-13T23:29:45.674Z,100.00
2023-04-13T23:32:17.982Z,100.00
2023-04-13T23:34:47.635Z,100.00
2023-04-13T23:37:17.386Z,100.00
2023-04-13T23:39:47.022Z,100.00
2023-04-13T23:42:16.766Z,100.00
2023-04-13T23:44:46.467Z,100.00
2023-04-13T23:47:18.774Z,100.00
2023-04-13T23:49:48.527Z,100.00
2023-04-13T23:52:18.202Z,100.00
2023-04-13T23:54:47.850Z,100.00
2023-04-13T23:57:17.588Z,100.00
2023-04-13T23:59:47.203Z,100.00
